createdAt,value
2023-05-06T00:00:44.375Z,97.25
2023-05-06T00:01:44.364Z,97.46
2023-05-06T00:02:44.433Z,97.97
2023-05-06T00:03:44.604Z,97.77
2023-05-06T00:04:44.348Z,97.46
2023-05-06T00:05:44.331Z,97.25
2023-05-06T00:06:44.301Z,97.46
2023-05-06T00:07:44.287Z,97.61
2023-05-06T00:08:44.266Z,97.61
2023-05-06T00:09:44.270Z,97.71
2023-05-06T00:10:44.242Z,97.81
2023-05-06T00:11:44.235Z,97.40
2023-05-06T00:12:44.240Z,98.22
2023-05-06T00:13:44.213Z,98.63
2023-05-06T00:14:44.179Z,98.83
2023-05-06T00:15:44.188Z,99.15
2023-05-06T00:16:44.223Z,98.94
2023-05-06T00:17:44.255Z,98.83
2023-05-06T00:18:44.142Z,99.45
2023-05-06T00:19:44.123Z,99.66
2023-05-06T00:20:44.101Z,99.99
2023-05-06T00:21:44.113Z,99.99
2023-05-06T00:22:44.127Z,99.99
2023-05-06T00:23:44.102Z,99.99
2023-05-06T00:24:44.074Z,99.99
2023-05-06T00:25:44.050Z,99.99
2023-05-06T00:26:44.037Z,99.99
2023-05-06T00:27:44.045Z,99.99
2023-05-06T00:28:43.999Z,99.99
2023-05-06T00:29:44.004Z,99.99
2023-05-06T00:30:44.010Z,99.99
2023-05-06T00:31:43.983Z,99.99
2023-05-06T00:32:44.032Z,99.99
2023-05-06T00:33:43.954Z,99.99
2023-05-06T00:34:43.935Z,99.99
2023-05-06T00:35:43.929Z,99.99
2023-05-06T00:36:43.908Z,99.99
2023-05-06T00:37:43.903Z,99.99
2023-05-06T00:38:43.938Z,99.99
2023-05-06T00:39:43.876Z,99.99
2023-05-06T00:40:43.848Z,99.99
2023-05-06T00:41:43.864Z,99.99
2023-05-06T00:42:43.844Z,99.99
2023-05-06T00:43:43.834Z,99.99
2023-05-06T00:44:43.798Z,99.99
2023-05-06T00:45:43.833Z,99.99
2023-05-06T00:46:43.776Z,99.99
2023-05-06T00:47:43.916Z,99.99
2023-05-06T00:48:43.759Z,99.99
2023-05-06T00:49:43.750Z,99.99
2023-05-06T00:50:43.753Z,99.99
2023-05-06T00:51:43.727Z,99.99
2023-05-06T00:52:43.708Z,99.99
2023-05-06T00:53:43.781Z,99.99
2023-05-06T00:54:43.842Z,99.99
2023-05-06T00:55:43.701Z,99.99
2023-05-06T00:56:43.701Z,99.99
2023-05-06T00:57:43.680Z,99.85
2023-05-06T00:58:43.711Z,99.99
2023-05-06T00:59:43.707Z,99.99
2023-05-06T01:00:43.619Z,99.99
2023-05-06T01:01:43.650Z,99.99
2023-05-06T01:02:47.360Z,99.99
2023-05-06T01:03:43.733Z,99.99
2023-05-06T01:04:43.595Z,99.99
2023-05-06T01:05:43.599Z,99.99
2023-05-06T01:06:43.550Z,99.99
2023-05-06T01:07:43.577Z,99.75
2023-05-06T01:08:43.526Z,99.54
2023-05-06T01:09:43.504Z,99.75
2023-05-06T01:10:43.480Z,99.75
2023-05-06T01:11:43.479Z,99.75
2023-05-06T01:12:44.712Z,99.75
2023-05-06T01:13:43.537Z,99.85
2023-05-06T01:14:43.419Z,99.99
2023-05-06T01:15:43.424Z,99.99
2023-05-06T01:16:43.476Z,99.65
2023-05-06T01:17:43.536Z,99.03
2023-05-06T01:18:43.372Z,99.44
2023-05-06T01:19:43.355Z,99.54
2023-05-06T01:20:43.369Z,99.99
2023-05-06T01:21:43.351Z,99.44
2023-05-06T01:22:43.315Z,99.54
2023-05-06T01:23:43.331Z,98.32
2023-05-06T01:24:43.300Z,98.93
2023-05-06T01:25:43.291Z,99.03
2023-05-06T01:26:43.272Z,98.93
2023-05-06T01:27:43.264Z,98.58
2023-05-06T01:28:43.245Z,98.72
2023-05-06T01:29:43.237Z,99.34
2023-05-06T01:30:43.263Z,99.40
2023-05-06T01:31:43.234Z,99.34
2023-05-06T01:32:43.212Z,99.54
2023-05-06T01:33:43.194Z,99.44
2023-05-06T01:34:43.166Z,98.93
2023-05-06T01:35:43.156Z,98.32
2023-05-06T01:36:43.146Z,98.83
2023-05-06T01:37:43.216Z,98.62
2023-05-06T01:38:43.140Z,98.52
2023-05-06T01:39:43.153Z,98.72
2023-05-06T01:40:43.100Z,99.09
2023-05-06T01:41:43.128Z,98.21
2023-05-06T01:42:43.150Z,97.91
2023-05-06T01:43:43.052Z,98.42
2023-05-06T01:44:43.033Z,98.83
2023-05-06T01:45:43.038Z,98.62
2023-05-06T01:46:43.055Z,98.42
2023-05-06T01:47:43.020Z,98.42
2023-05-06T01:48:42.996Z,98.72
2023-05-06T01:49:42.976Z,98.72
2023-05-06T01:50:42.958Z,98.72
2023-05-06T01:51:42.953Z,99.03
2023-05-06T01:52:42.937Z,99.03
2023-05-06T01:53:42.933Z,99.54
2023-05-06T01:54:42.907Z,99.44
2023-05-06T01:55:42.900Z,99.99
2023-05-06T01:56:42.904Z,99.99
2023-05-06T01:57:42.881Z,99.85
2023-05-06T01:58:42.855Z,99.38
2023-05-06T01:59:42.850Z,99.59
2023-05-06T02:00:42.869Z,99.69
2023-05-06T02:01:42.893Z,99.59
2023-05-06T02:02:43.007Z,99.90
2023-05-06T02:03:42.895Z,99.99
2023-05-06T02:04:42.796Z,99.99
2023-05-06T02:05:42.779Z,99.99
2023-05-06T02:06:42.800Z,99.99
2023-05-06T02:07:42.811Z,99.99
2023-05-06T02:08:42.726Z,99.99
2023-05-06T02:09:42.924Z,99.99
2023-05-06T02:10:42.706Z,99.99
2023-05-06T02:11:42.707Z,99.99
2023-05-06T02:12:42.712Z,99.99
2023-05-06T02:13:42.693Z,99.99
2023-05-06T02:14:42.639Z,99.99
2023-05-06T02:15:42.732Z,99.99
2023-05-06T02:16:42.635Z,99.99
2023-05-06T02:17:42.668Z,99.99
2023-05-06T02:18:42.632Z,99.99
2023-05-06T02:19:43.160Z,99.99
2023-05-06T02:20:42.627Z,99.99
2023-05-06T02:21:42.660Z,99.99
2023-05-06T02:22:42.590Z,99.99
2023-05-06T02:23:42.548Z,99.99
2023-05-06T02:24:42.508Z,99.99
2023-05-06T02:25:42.500Z,99.99
2023-05-06T02:26:42.529Z,99.99
2023-05-06T02:27:42.482Z,99.99
2023-05-06T02:28:42.768Z,99.99
2023-05-06T02:29:42.465Z,99.99
2023-05-06T02:30:42.462Z,99.99
2023-05-06T02:31:42.498Z,99.99
2023-05-06T02:32:42.531Z,99.99
2023-05-06T02:33:42.426Z,99.99
2023-05-06T02:34:42.411Z,99.99
2023-05-06T02:35:42.380Z,99.99
2023-05-06T02:36:42.403Z,99.99
2023-05-06T02:37:42.362Z,99.99
2023-05-06T02:38:42.353Z,99.99
2023-05-06T02:39:42.337Z,99.99
2023-05-06T02:40:42.511Z,99.99
2023-05-06T02:41:42.310Z,99.99
2023-05-06T02:42:42.336Z,99.99
2023-05-06T02:43:42.265Z,99.99
2023-05-06T02:44:42.306Z,99.99
2023-05-06T02:45:42.284Z,99.99
2023-05-06T02:46:42.254Z,99.99
2023-05-06T02:47:42.315Z,99.99
2023-05-06T02:48:42.226Z,99.99
2023-05-06T02:49:42.216Z,99.99
2023-05-06T02:50:42.183Z,99.99
2023-05-06T02:51:42.190Z,99.99
2023-05-06T02:52:42.179Z,99.99
2023-05-06T02:53:42.148Z,99.99
2023-05-06T02:54:42.154Z,99.99
2023-05-06T02:55:42.128Z,99.99
2023-05-06T02:56:42.126Z,99.99
2023-05-06T02:57:42.097Z,99.99
2023-05-06T02:58:42.125Z,99.99
2023-05-06T02:59:42.053Z,99.99
2023-05-06T03:00:42.069Z,99.99
2023-05-06T03:01:42.087Z,99.99
2023-05-06T03:02:42.094Z,99.99
2023-05-06T03:03:42.050Z,99.99
2023-05-06T03:04:42.129Z,99.99
2023-05-06T03:05:41.987Z,99.99
2023-05-06T03:06:42.008Z,99.99
2023-05-06T03:07:41.977Z,99.99
2023-05-06T03:08:41.969Z,99.99
2023-05-06T03:09:41.953Z,99.99
2023-05-06T03:10:41.937Z,99.99
2023-05-06T03:11:41.949Z,99.99
2023-05-06T03:12:41.944Z,99.99
2023-05-06T03:13:41.955Z,99.99
2023-05-06T03:14:41.906Z,99.99
2023-05-06T03:15:41.936Z,99.99
2023-05-06T03:16:42.527Z,99.99
2023-05-06T03:17:41.850Z,99.99
2023-05-06T03:18:41.846Z,99.99
2023-05-06T03:19:41.801Z,99.99
2023-05-06T03:20:41.826Z,99.99
2023-05-06T03:21:41.810Z,99.99
2023-05-06T03:22:41.786Z,99.99
2023-05-06T03:23:41.859Z,99.99
2023-05-06T03:24:41.932Z,99.99
2023-05-06T03:25:41.749Z,99.99
2023-05-06T03:26:41.805Z,99.99
2023-05-06T03:27:41.710Z,99.99
2023-05-06T03:28:41.694Z,99.99
2023-05-06T03:29:41.866Z,99.99
2023-05-06T03:30:41.687Z,99.99
2023-05-06T03:31:41.713Z,99.99
2023-05-06T03:32:41.706Z,99.99
2023-05-06T03:33:41.633Z,99.99
2023-05-06T03:34:41.630Z,99.99
2023-05-06T03:35:41.603Z,99.99
2023-05-06T03:36:41.640Z,99.99
2023-05-06T03:37:41.578Z,99.99
2023-05-06T03:38:41.607Z,99.99
2023-05-06T03:39:41.563Z,99.99
2023-05-06T03:40:41.571Z,99.99
2023-05-06T03:41:41.547Z,99.99
2023-05-06T03:42:41.540Z,99.99
2023-05-06T03:43:41.509Z,99.99
2023-05-06T03:44:41.514Z,99.99
2023-05-06T03:45:41.470Z,99.99
2023-05-06T03:46:41.623Z,99.99
2023-05-06T03:47:41.482Z,99.99
2023-05-06T03:48:41.456Z,99.99
2023-05-06T03:49:41.409Z,99.99
2023-05-06T03:50:41.430Z,99.99
2023-05-06T03:51:41.431Z,99.99
2023-05-06T03:52:41.407Z,99.99
2023-05-06T03:53:41.381Z,99.99
2023-05-06T03:54:41.394Z,99.99
2023-05-06T03:55:41.343Z,99.99
2023-05-06T03:56:41.352Z,99.99
2023-05-06T03:57:41.328Z,99.99
2023-05-06T03:58:41.317Z,99.99
2023-05-06T03:59:41.312Z,99.99
2023-05-06T04:00:41.322Z,99.99
2023-05-06T04:01:41.316Z,99.99
2023-05-06T04:02:41.346Z,99.99
2023-05-06T04:03:41.325Z,99.99
2023-05-06T04:04:41.247Z,99.99
2023-05-06T04:05:41.201Z,99.99
2023-05-06T04:06:41.223Z,99.99
2023-05-06T04:07:41.195Z,99.99
2023-05-06T04:08:41.182Z,99.99
2023-05-06T04:09:41.163Z,99.99
2023-05-06T04:10:41.157Z,99.99
2023-05-06T04:11:41.141Z,99.99
2023-05-06T04:12:41.234Z,99.99
2023-05-06T04:13:41.131Z,99.99
2023-05-06T04:14:41.115Z,99.99
2023-05-06T04:15:41.083Z,99.99
2023-05-06T04:16:41.203Z,99.99
2023-05-06T04:17:41.147Z,99.99
2023-05-06T04:18:41.054Z,99.99
2023-05-06T04:19:41.180Z,99.99
2023-05-06T04:20:41.026Z,99.99
2023-05-06T04:21:41.046Z,99.99
2023-05-06T04:22:41.034Z,99.99
2023-05-06T04:23:41.017Z,99.99
2023-05-06T04:24:40.977Z,99.99
2023-05-06T04:25:40.953Z,99.99
2023-05-06T04:26:40.963Z,99.99
2023-05-06T04:27:40.944Z,99.99
2023-05-06T04:28:40.924Z,99.99
2023-05-06T04:29:40.918Z,99.99
2023-05-06T04:30:40.894Z,99.99
2023-05-06T04:31:40.900Z,99.99
2023-05-06T04:32:40.944Z,99.99
2023-05-06T04:33:41.382Z,99.99
2023-05-06T04:34:40.889Z,99.99
2023-05-06T04:36:38.949Z,99.99
2023-05-06T04:37:36.875Z,99.99
2023-05-06T04:38:36.897Z,99.99
2023-05-06T04:39:36.879Z,99.99
2023-05-06T04:40:36.890Z,99.99
2023-05-06T04:41:36.864Z,99.99
2023-05-06T04:42:36.833Z,99.99
2023-05-06T04:43:36.826Z,99.99
2023-05-06T04:44:36.828Z,99.99
2023-05-06T04:45:36.829Z,99.99
2023-05-06T04:46:36.783Z,99.99
2023-05-06T04:47:36.830Z,99.93
2023-05-06T04:48:36.820Z,99.31
2023-05-06T04:49:36.733Z,99.31
2023-05-06T04:50:36.796Z,99.72
2023-05-06T04:51:36.720Z,99.99
2023-05-06T04:52:36.739Z,99.41
2023-05-06T04:53:36.703Z,99.21
2023-05-06T04:54:36.748Z,99.31
2023-05-06T04:55:36.690Z,99.00
2023-05-06T04:56:36.651Z,99.72
2023-05-06T04:57:36.691Z,99.82
2023-05-06T04:58:36.699Z,99.62
2023-05-06T04:59:37.019Z,99.51
2023-05-06T05:00:36.616Z,99.62
2023-05-06T05:01:36.693Z,99.31
2023-05-06T05:02:36.698Z,99.41
2023-05-06T05:03:36.596Z,99.62
2023-05-06T05:04:36.552Z,99.72
2023-05-06T05:05:36.549Z,99.21
2023-05-06T05:06:36.530Z,98.59
2023-05-06T05:07:36.539Z,98.79
2023-05-06T05:08:36.497Z,99.62
2023-05-06T05:09:36.507Z,99.41
2023-05-06T05:10:36.507Z,99.21
2023-05-06T05:11:36.469Z,99.41
2023-05-06T05:12:36.540Z,99.41
2023-05-06T05:13:36.458Z,98.38
2023-05-06T05:14:36.431Z,98.38
2023-05-06T05:15:36.637Z,98.90
2023-05-06T05:16:36.417Z,98.59
2023-05-06T05:17:36.455Z,98.79
2023-05-06T05:18:36.412Z,98.90
2023-05-06T05:19:36.408Z,98.59
2023-05-06T05:20:36.397Z,97.97
2023-05-06T05:21:36.348Z,98.07
2023-05-06T05:22:36.314Z,98.49
2023-05-06T05:23:36.345Z,98.38
2023-05-06T05:24:36.363Z,98.49
2023-05-06T05:25:36.285Z,97.30
2023-05-06T05:26:36.278Z,97.91
2023-05-06T05:27:36.267Z,97.97
2023-05-06T05:28:36.234Z,97.77
2023-05-06T05:29:36.264Z,97.66
2023-05-06T05:30:36.265Z,97.50
2023-05-06T05:31:36.214Z,97.50
2023-05-06T05:32:36.358Z,97.50
2023-05-06T05:33:36.294Z,97.61
2023-05-06T05:34:36.220Z,97.61
2023-05-06T05:35:36.176Z,98.02
2023-05-06T05:36:36.181Z,98.18
2023-05-06T05:37:36.107Z,98.22
2023-05-06T05:38:36.185Z,97.71
2023-05-06T05:39:36.099Z,97.50
2023-05-06T05:40:36.083Z,97.71
2023-05-06T05:41:36.147Z,97.91
2023-05-06T05:42:36.073Z,98.02
2023-05-06T05:43:36.094Z,97.87
2023-05-06T05:44:36.028Z,97.97
2023-05-06T05:45:36.027Z,97.77
2023-05-06T05:46:36.057Z,97.56
2023-05-06T05:47:36.027Z,97.36
2023-05-06T05:48:36.003Z,97.09
2023-05-06T05:49:35.994Z,97.66
2023-05-06T05:50:35.979Z,97.87
2023-05-06T05:51:35.982Z,97.77
2023-05-06T05:52:35.930Z,97.45
2023-05-06T05:53:35.907Z,97.56
2023-05-06T05:54:35.911Z,97.05
2023-05-06T05:55:35.881Z,97.05
2023-05-06T05:56:35.869Z,97.05
2023-05-06T05:57:35.879Z,97.36
2023-05-06T05:58:35.885Z,97.87
2023-05-06T05:59:35.843Z,97.56
2023-05-06T06:00:35.862Z,97.20
2023-05-06T06:01:35.851Z,97.31
2023-05-06T06:02:35.937Z,97.62
2023-05-06T06:03:35.979Z,97.31
2023-05-06T06:04:35.841Z,97.31
2023-05-06T06:05:35.787Z,97.72
2023-05-06T06:06:35.759Z,97.62
2023-05-06T06:07:35.732Z,97.20
2023-05-06T06:08:35.728Z,97.20
2023-05-06T06:09:35.764Z,96.48
2023-05-06T06:10:36.461Z,96.59
2023-05-06T06:11:35.702Z,96.90
2023-05-06T06:12:35.810Z,96.90
2023-05-06T06:13:35.814Z,96.90
2023-05-06T06:14:35.666Z,96.08
2023-05-06T06:15:35.630Z,96.12
2023-05-06T06:16:35.643Z,96.18
2023-05-06T06:17:35.667Z,96.12
2023-05-06T06:18:35.626Z,97.05
2023-05-06T06:19:35.601Z,96.48
2023-05-06T06:20:35.586Z,96.18
2023-05-06T06:21:35.574Z,96.39
2023-05-06T06:22:35.582Z,95.97
2023-05-06T06:23:35.526Z,96.39
2023-05-06T06:24:35.558Z,96.80
2023-05-06T06:25:35.523Z,97.31
2023-05-06T06:26:35.636Z,97.00
2023-05-06T06:27:35.486Z,96.28
2023-05-06T06:28:35.551Z,96.18
2023-05-06T06:29:35.477Z,96.18
2023-05-06T06:30:35.436Z,96.39
2023-05-06T06:31:35.938Z,96.59
2023-05-06T06:32:35.498Z,96.18
2023-05-06T06:33:35.423Z,96.59
2023-05-06T06:34:35.404Z,96.48
2023-05-06T06:35:35.370Z,96.28
2023-05-06T06:36:35.365Z,96.18
2023-05-06T06:37:35.409Z,95.77
2023-05-06T06:38:35.386Z,96.28
2023-05-06T06:39:35.383Z,96.08
2023-05-06T06:40:35.326Z,96.08
2023-05-06T06:41:35.295Z,95.87
2023-05-06T06:42:35.344Z,95.87
2023-05-06T06:43:35.321Z,96.08
2023-05-06T06:44:35.284Z,95.97
2023-05-06T06:45:35.303Z,95.31
2023-05-06T06:46:35.277Z,94.95
2023-05-06T06:47:35.238Z,94.84
2023-05-06T06:48:35.264Z,94.84
2023-05-06T06:49:35.192Z,95.05
2023-05-06T06:50:35.203Z,95.36
2023-05-06T06:51:35.195Z,95.67
2023-05-06T06:52:35.179Z,95.46
2023-05-06T06:53:35.171Z,95.56
2023-05-06T06:54:35.146Z,95.25
2023-05-06T06:55:35.223Z,95.56
2023-05-06T06:56:35.113Z,95.46
2023-05-06T06:57:35.124Z,95.42
2023-05-06T06:58:35.124Z,95.31
2023-05-06T06:59:35.059Z,94.80
2023-05-06T07:00:35.132Z,95.01
2023-05-06T07:01:35.127Z,95.05
2023-05-06T07:02:35.091Z,94.54
2023-05-06T07:03:35.044Z,94.95
2023-05-06T07:04:35.076Z,94.84
2023-05-06T07:05:35.014Z,94.84
2023-05-06T07:06:35.002Z,95.05
2023-05-06T07:07:34.991Z,95.25
2023-05-06T07:08:34.950Z,94.84
2023-05-06T07:09:35.733Z,94.84
2023-05-06T07:10:34.943Z,94.84
2023-05-06T07:11:34.976Z,94.70
2023-05-06T07:12:34.967Z,94.08
2023-05-06T07:13:35.512Z,94.33
2023-05-06T07:14:34.905Z,95.31
2023-05-06T07:15:34.881Z,94.90
2023-05-06T07:16:35.009Z,94.90
2023-05-06T07:17:34.885Z,94.84
2023-05-06T07:18:35.620Z,94.54
2023-05-06T07:19:34.820Z,94.70
2023-05-06T07:20:34.844Z,94.90
2023-05-06T07:21:34.812Z,94.80
2023-05-06T07:22:34.788Z,94.39
2023-05-06T07:23:34.814Z,94.18
2023-05-06T07:24:34.768Z,93.98
2023-05-06T07:25:34.737Z,93.98
2023-05-06T07:26:34.716Z,93.57
2023-05-06T07:27:34.795Z,93.92
2023-05-06T07:28:34.703Z,93.82
2023-05-06T07:29:34.689Z,93.57
2023-05-06T07:30:34.762Z,93.98
2023-05-06T07:31:34.758Z,93.98
2023-05-06T07:32:34.705Z,93.57
2023-05-06T07:33:34.656Z,93.26
2023-05-06T07:34:34.629Z,93.67
2023-05-06T07:35:34.659Z,93.98
2023-05-06T07:36:34.618Z,93.67
2023-05-06T07:37:34.629Z,93.98
2023-05-06T07:38:34.591Z,93.98
2023-05-06T07:39:34.553Z,93.87
2023-05-06T07:40:34.584Z,93.46
2023-05-06T07:41:34.536Z,93.46
2023-05-06T07:42:34.579Z,93.46
2023-05-06T07:43:34.544Z,92.85
2023-05-06T07:44:34.493Z,93.51
2023-05-06T07:45:34.515Z,93.98
2023-05-06T07:46:34.646Z,93.26
2023-05-06T07:47:34.516Z,93.82
2023-05-06T07:48:34.493Z,93.77
2023-05-06T07:49:34.441Z,93.77
2023-05-06T07:50:34.509Z,93.77
2023-05-06T07:51:34.406Z,93.77
2023-05-06T07:52:34.393Z,94.08
2023-05-06T07:53:34.387Z,93.87
2023-05-06T07:54:34.495Z,93.77
2023-05-06T07:55:35.277Z,93.57
2023-05-06T07:56:34.373Z,93.77
2023-05-06T07:57:34.431Z,93.87
2023-05-06T07:58:34.353Z,93.87
2023-05-06T07:59:34.397Z,93.98
2023-05-06T08:00:34.369Z,94.18
2023-05-06T08:01:34.410Z,93.87
2023-05-06T08:02:34.344Z,93.98
2023-05-06T08:03:34.410Z,93.36
2023-05-06T08:04:34.293Z,93.46
2023-05-06T08:05:34.226Z,93.52
2023-05-06T08:06:36.137Z,93.73
2023-05-06T08:07:34.194Z,93.83
2023-05-06T08:08:34.244Z,93.63
2023-05-06T08:09:34.422Z,93.63
2023-05-06T08:10:34.156Z,92.80
2023-05-06T08:11:34.144Z,93.12
2023-05-06T08:12:34.147Z,93.42
2023-05-06T08:13:34.111Z,93.93
2023-05-06T08:14:34.112Z,93.73
2023-05-06T08:15:34.081Z,93.93
2023-05-06T08:16:34.141Z,93.98
2023-05-06T08:17:34.110Z,94.34
2023-05-06T08:18:34.075Z,94.14
2023-05-06T08:19:34.049Z,94.34
2023-05-06T08:20:34.078Z,94.04
2023-05-06T08:21:34.117Z,94.24
2023-05-06T08:22:34.049Z,94.45
2023-05-06T08:23:34.595Z,94.24
2023-05-06T08:24:34.047Z,94.55
2023-05-06T08:25:34.932Z,94.76
2023-05-06T08:26:33.953Z,94.96
2023-05-06T08:27:33.960Z,95.06
2023-05-06T08:28:33.953Z,95.37
2023-05-06T08:29:33.921Z,94.85
2023-05-06T08:30:33.928Z,95.37
2023-05-06T08:31:33.913Z,95.98
2023-05-06T08:32:33.928Z,96.30
2023-05-06T08:33:33.883Z,96.50
2023-05-06T08:34:33.875Z,96.40
2023-05-06T08:35:33.844Z,96.30
2023-05-06T08:36:33.861Z,96.40
2023-05-06T08:37:33.856Z,97.06
2023-05-06T08:38:33.863Z,97.06
2023-05-06T08:39:33.779Z,96.85
2023-05-06T08:40:33.880Z,97.37
2023-05-06T08:41:33.769Z,97.99
2023-05-06T08:42:33.756Z,98.29
2023-05-06T08:43:33.765Z,98.50
2023-05-06T08:44:33.824Z,98.80
2023-05-06T08:45:33.718Z,98.60
2023-05-06T08:46:33.732Z,98.70
2023-05-06T08:47:33.702Z,98.70
2023-05-06T08:48:33.713Z,98.80
2023-05-06T08:49:33.691Z,98.91
2023-05-06T08:50:33.637Z,99.01
2023-05-06T08:51:33.623Z,98.80
2023-05-06T08:52:33.683Z,98.50
2023-05-06T08:53:33.818Z,98.91
2023-05-06T08:54:33.608Z,99.11
2023-05-06T08:55:33.695Z,99.21
2023-05-06T08:56:33.976Z,99.11
2023-05-06T08:57:33.840Z,99.11
2023-05-06T08:58:35.965Z,99.38
2023-05-06T08:59:33.554Z,99.48
2023-05-06T09:00:33.522Z,99.27
2023-05-06T09:01:33.610Z,98.86
2023-05-06T09:02:33.612Z,99.27
2023-05-06T09:03:33.633Z,99.27
2023-05-06T09:04:33.450Z,99.58
2023-05-06T09:05:33.581Z,99.38
2023-05-06T09:06:33.513Z,99.58
2023-05-06T09:07:33.490Z,99.79
2023-05-06T09:08:33.467Z,99.99
2023-05-06T09:09:33.427Z,99.89
2023-05-06T09:10:33.386Z,99.11
2023-05-06T09:11:33.404Z,99.42
2023-05-06T09:12:33.399Z,99.42
2023-05-06T09:13:33.425Z,99.52
2023-05-06T09:14:33.572Z,99.73
2023-05-06T09:15:34.777Z,99.99
2023-05-06T09:16:33.542Z,99.99
2023-05-06T09:17:33.788Z,99.99
2023-05-06T09:18:33.352Z,99.99
2023-05-06T09:19:33.310Z,99.99
2023-05-06T09:20:33.362Z,99.83
2023-05-06T09:21:33.273Z,99.89
2023-05-06T09:22:33.295Z,99.89
2023-05-06T09:23:33.281Z,99.99
2023-05-06T09:24:33.221Z,99.89
2023-05-06T09:25:33.223Z,99.99
2023-05-06T09:26:33.245Z,99.99
2023-05-06T09:27:33.222Z,99.99
2023-05-06T09:28:33.153Z,99.99
2023-05-06T09:29:33.189Z,99.99
2023-05-06T09:30:33.191Z,99.99
2023-05-06T09:31:33.204Z,99.99
2023-05-06T09:32:33.226Z,99.99
2023-05-06T09:33:33.489Z,99.99
2023-05-06T09:34:33.104Z,99.99
2023-05-06T09:35:33.093Z,99.99
2023-05-06T09:36:33.456Z,99.99
2023-05-06T09:37:33.097Z,99.99
2023-05-06T09:38:33.053Z,99.99
2023-05-06T09:39:33.042Z,99.99
2023-05-06T09:40:33.025Z,99.99
2023-05-06T09:41:33.194Z,99.99
2023-05-06T09:42:32.989Z,99.99
2023-05-06T09:43:33.297Z,99.99
2023-05-06T09:44:33.725Z,99.99
2023-05-06T09:45:33.134Z,99.99
2023-05-06T09:46:33.171Z,99.99
2023-05-06T09:47:33.004Z,99.99
2023-05-06T09:48:32.912Z,99.99
2023-05-06T09:49:32.987Z,99.99
2023-05-06T09:50:32.903Z,99.99
2023-05-06T09:51:32.931Z,99.90
2023-05-06T09:52:32.916Z,99.99
2023-05-06T09:53:32.849Z,99.99
2023-05-06T09:54:32.808Z,99.79
2023-05-06T09:55:32.787Z,99.33
2023-05-06T09:56:33.194Z,99.74
2023-05-06T09:57:32.761Z,99.95
2023-05-06T09:58:32.968Z,99.84
2023-05-06T09:59:32.845Z,99.95
2023-05-06T10:00:32.942Z,99.54
2023-05-06T10:01:37.169Z,99.63
2023-05-06T10:02:32.806Z,99.74
2023-05-06T10:03:32.824Z,99.99
2023-05-06T10:04:32.845Z,99.95
2023-05-06T10:05:32.744Z,99.99
2023-05-06T10:06:32.653Z,99.74
2023-05-06T10:07:32.697Z,99.74
2023-05-06T10:08:32.658Z,99.84
2023-05-06T10:09:32.617Z,99.33
2023-05-06T10:10:32.588Z,99.63
2023-05-06T10:11:33.247Z,99.54
2023-05-06T10:12:32.626Z,99.63
2023-05-06T10:13:32.653Z,99.69
2023-05-06T10:14:32.606Z,99.43
2023-05-06T10:15:32.593Z,99.63
2023-05-06T10:16:32.715Z,99.99
2023-05-06T10:17:32.661Z,99.99
2023-05-06T10:18:32.498Z,99.99
2023-05-06T10:19:32.492Z,99.99
2023-05-06T10:20:32.458Z,99.95
2023-05-06T10:21:32.546Z,99.99
2023-05-06T10:22:32.435Z,99.63
2023-05-06T10:23:32.505Z,99.84
2023-05-06T10:24:32.553Z,99.74
2023-05-06T10:25:32.448Z,99.74
2023-05-06T10:26:32.388Z,99.95
2023-05-06T10:27:32.381Z,99.74
2023-05-06T10:28:32.371Z,99.99
2023-05-06T10:29:32.361Z,99.99
2023-05-06T10:30:32.344Z,99.95
2023-05-06T10:31:32.386Z,99.95
2023-05-06T10:32:32.379Z,99.54
2023-05-06T10:33:32.322Z,99.74
2023-05-06T10:34:32.296Z,99.33
2023-05-06T10:35:32.308Z,99.54
2023-05-06T10:36:32.264Z,99.63
2023-05-06T10:37:32.237Z,99.63
2023-05-06T10:38:32.239Z,99.79
2023-05-06T10:39:32.354Z,99.22
2023-05-06T10:40:32.409Z,99.12
2023-05-06T10:41:32.210Z,99.54
2023-05-06T10:42:32.169Z,99.38
2023-05-06T10:43:32.211Z,99.79
2023-05-06T10:44:32.153Z,99.18
2023-05-06T10:45:32.155Z,99.54
2023-05-06T10:46:32.100Z,99.54
2023-05-06T10:47:32.154Z,99.63
2023-05-06T10:48:32.147Z,99.33
2023-05-06T10:49:32.073Z,99.33
2023-05-06T10:50:32.061Z,99.02
2023-05-06T10:51:32.058Z,99.63
2023-05-06T10:52:32.243Z,99.84
2023-05-06T10:53:32.013Z,99.54
2023-05-06T10:54:31.995Z,99.74
2023-05-06T10:55:32.075Z,99.84
2023-05-06T10:56:32.019Z,99.84
2023-05-06T10:57:32.066Z,99.99
2023-05-06T10:58:32.047Z,99.54
2023-05-06T10:59:32.013Z,99.33
2023-05-06T11:00:32.519Z,99.54
2023-05-06T11:01:33.804Z,99.22
2023-05-06T11:02:32.122Z,99.43
2023-05-06T11:03:32.085Z,99.74
2023-05-06T11:04:31.991Z,99.74
2023-05-06T11:05:32.670Z,99.63
2023-05-06T11:06:31.870Z,99.99
2023-05-06T11:07:31.879Z,99.99
2023-05-06T11:08:31.884Z,99.99
2023-05-06T11:09:31.820Z,99.63
2023-05-06T11:10:31.998Z,99.63
2023-05-06T11:11:31.822Z,99.54
2023-05-06T11:12:31.814Z,99.48
2023-05-06T11:13:32.022Z,99.38
2023-05-06T11:14:31.755Z,99.68
2023-05-06T11:15:31.758Z,99.48
2023-05-06T11:16:31.798Z,99.38
2023-05-06T11:17:31.802Z,99.58
2023-05-06T11:18:31.726Z,99.38
2023-05-06T11:19:32.379Z,99.68
2023-05-06T11:20:31.680Z,99.79
2023-05-06T11:21:31.678Z,99.38
2023-05-06T11:22:31.927Z,99.27
2023-05-06T11:23:31.639Z,99.27
2023-05-06T11:24:31.784Z,99.58
2023-05-06T11:25:31.742Z,99.89
2023-05-06T11:26:31.681Z,99.99
2023-05-06T11:27:31.591Z,99.48
2023-05-06T11:28:31.577Z,99.27
2023-05-06T11:29:31.565Z,99.68
2023-05-06T11:30:31.669Z,99.79
2023-05-06T11:31:31.549Z,99.27
2023-05-06T11:32:31.661Z,98.76
2023-05-06T11:33:31.514Z,99.27
2023-05-06T11:34:31.505Z,99.27
2023-05-06T11:35:31.495Z,99.38
2023-05-06T11:36:31.628Z,99.27
2023-05-06T11:37:31.540Z,99.27
2023-05-06T11:38:31.433Z,98.86
2023-05-06T11:39:33.236Z,98.96
2023-05-06T11:40:31.455Z,98.76
2023-05-06T11:41:31.389Z,98.35
2023-05-06T11:42:31.518Z,98.86
2023-05-06T11:43:31.447Z,98.35
2023-05-06T11:44:32.314Z,98.86
2023-05-06T11:45:31.601Z,98.66
2023-05-06T11:46:31.344Z,98.86
2023-05-06T11:47:31.334Z,98.55
2023-05-06T11:48:32.049Z,98.45
2023-05-06T11:49:31.324Z,98.35
2023-05-06T11:50:31.339Z,97.94
2023-05-06T11:51:31.357Z,98.14
2023-05-06T11:52:31.287Z,98.45
2023-05-06T11:53:31.285Z,98.45
2023-05-06T11:54:31.251Z,98.71
2023-05-06T11:55:31.254Z,98.10
2023-05-06T11:56:31.189Z,97.99
2023-05-06T11:57:31.183Z,97.79
2023-05-06T11:58:31.706Z,97.89
2023-05-06T11:59:31.181Z,97.58
2023-05-06T12:00:31.190Z,97.12
2023-05-06T12:01:31.301Z,97.12
2023-05-06T12:02:31.237Z,97.32
2023-05-06T12:03:31.723Z,97.12
2023-05-06T12:04:31.670Z,97.02
2023-05-06T12:05:31.351Z,97.12
2023-05-06T12:06:31.075Z,96.70
2023-05-06T12:07:31.053Z,96.66
2023-05-06T12:08:30.994Z,96.97
2023-05-06T12:09:31.049Z,96.45
2023-05-06T12:10:31.020Z,96.25
2023-05-06T12:11:31.431Z,95.94
2023-05-06T12:12:31.603Z,95.64
2023-05-06T12:13:31.419Z,95.68
2023-05-06T12:14:31.845Z,95.78
2023-05-06T12:15:30.919Z,96.45
2023-05-06T12:16:30.965Z,96.35
2023-05-06T12:17:30.995Z,96.45
2023-05-06T12:18:30.877Z,96.35
2023-05-06T12:19:31.005Z,96.25
2023-05-06T12:20:30.942Z,96.45
2023-05-06T12:21:30.852Z,96.77
2023-05-06T12:22:30.828Z,96.51
2023-05-06T12:23:30.888Z,96.51
2023-05-06T12:24:30.818Z,96.00
2023-05-06T12:25:30.856Z,95.43
2023-05-06T12:26:30.785Z,95.94
2023-05-06T12:27:30.768Z,96.25
2023-05-06T12:28:30.737Z,96.35
2023-05-06T12:29:30.764Z,96.35
2023-05-06T12:30:30.714Z,96.35
2023-05-06T12:31:30.761Z,96.45
2023-05-06T12:32:30.734Z,96.25
2023-05-06T12:33:30.683Z,95.12
2023-05-06T12:34:30.665Z,95.94
2023-05-06T12:35:30.687Z,95.64
2023-05-06T12:36:30.641Z,96.19
2023-05-06T12:37:30.717Z,95.98
2023-05-06T12:38:30.615Z,95.89
2023-05-06T12:39:30.651Z,95.68
2023-05-06T12:40:30.575Z,95.47
2023-05-06T12:41:30.615Z,95.68
2023-05-06T12:42:30.568Z,96.19
2023-05-06T12:43:30.566Z,95.57
2023-05-06T12:44:30.537Z,95.17
2023-05-06T12:45:30.619Z,95.37
2023-05-06T12:46:30.951Z,95.42
2023-05-06T12:47:30.491Z,96.19
2023-05-06T12:48:30.482Z,96.40
2023-05-06T12:49:30.468Z,95.78
2023-05-06T12:50:30.533Z,95.27
2023-05-06T12:51:30.526Z,95.89
2023-05-06T12:52:30.480Z,95.47
2023-05-06T12:53:30.485Z,95.78